Latest Weather Observations for Devonport Airport

IDT60801

Issued at 2:05 pm EDT Sunday 26 October 2014 (issued every 30 minutes, with the page automatically refreshed every 10 minutes)

About weather observations | Map of weather stations | Latest weather observations for TAS | Other Formats
Station Details ID: 091126 Name: DEVONPORT AIRPORT Lat: -41.17 Lon: 146.43 Height: 8.0 m
Data from the previous 72 hours. | See also: Recent months at Devonport Airport
Date/Time
EDT
Temp
°C
App
Temp
°C
Dew
Point
Rel
Hum
%
Delta-T
°C
Wind Press
QNH
hPa
Press
MSL
hPa
Rain
since 9 am
mm
Dir
 
Spd
km/h
Gust
km/h
Spd
kts
Gust
kts
26/02:00pm 15.9 14.4 13.0 83 1.6 N 13 17 7 9 1012.2 1012.2 0.2
26/01:30pm 15.6 14.4 12.9 84 1.5 N 11 15 6 8 1012.5 1012.5 0.0
26/01:29pm 15.3 13.8 11.9 80 1.8 NNW 11 15 6 8 1012.5 1012.5 0.0
26/01:00pm 15.1 13.6 13.1 88 1.1 N 13 17 7 9 1012.8 1012.8 0.0
26/12:30pm 14.6 13.0 12.8 89 1.0 N 13 17 7 9 1013.3 1013.3 0.0
26/12:07pm 14.3 12.8 13.2 93 0.6 N 13 17 7 9 1013.1 1013.1 0.0
26/12:00pm 13.9 12.2 12.6 92 0.7 N 13 17 7 9 1013.2 1013.2 0.0
26/11:44am 13.7 11.4 12.9 95 0.4 N 17 20 9 11 1013.5 1013.5 0.0
26/11:30am 14.0 11.9 12.4 90 0.9 N 15 20 8 11 1013.4 1013.4 0.0
26/11:00am 14.7 13.4 12.4 86 1.3 NNE 11 13 6 7 1013.6 1013.6 0.0
26/10:30am 14.6 12.9 12.6 88 1.1 ENE 13 17 7 9 1013.7 1013.7 0.0
26/10:00am 14.2 13.1 11.9 86 1.2 E 9 15 5 8 1013.6 1013.6 0.0
26/09:30am 13.9 12.8 12.1 89 1.0 ESE 9 13 5 7 1013.5 1013.5 0.0
26/09:05am 14.0 12.6 12.2 89 1.0 SE 11 17 6 9 1013.6 1013.6 0.0
26/09:00am 13.9 12.8 12.1 89 1.0 SE 9 13 5 7 1013.7 1013.7 1.4
26/08:30am 13.3 11.5 12.0 92 0.7 SSE 13 15 7 8 1013.8 1013.8 1.4
26/08:20am 13.1 11.3 12.2 94 0.5 SSE 13 17 7 9 1013.9 1014.0 1.4
26/08:00am 13.0 10.8 12.1 94 0.5 SE 15 19 8 10 1013.6 1013.6 1.4
26/07:30am 12.9 10.7 12.1 95 0.4 SSE 15 17 8 9 1013.6 1013.6 1.4
26/07:13am 12.9 11.5 12.3 96 0.3 SSE 11 13 6 7 1013.4 1013.4 1.4
26/07:00am 12.7 11.7 12.2 97 0.3 SSE 9 11 5 6 1013.4 1013.4 1.4
26/06:30am 12.7 10.9 12.1 96 0.3 NE 13 15 7 8 1013.2 1013.2 1.2
26/06:17am 12.8 11.0 12.2 96 0.3 NE 13 15 7 8 1013.1 1013.1 1.2
26/06:09am 12.8 11.0 12.0 95 0.4 NE 13 15 7 8 1013.1 1013.1 1.2
26/06:00am 12.8 11.8 12.2 96 0.3 NE 9 13 5 7 1013.0 1013.0 1.2
26/05:30am 12.6 11.5 12.1 97 0.3 N 9 15 5 8 1013.3 1013.3 1.2
26/05:00am 12.9 11.5 12.3 96 0.3 NNE 11 15 6 8 1013.4 1013.4 1.2
26/04:30am 12.9 11.9 12.3 96 0.3 ENE 9 13 5 7 1013.6 1013.6 0.8
26/04:00am 12.9 11.2 12.3 96 0.3 ENE 13 19 7 10 1013.6 1013.6 0.6
26/03:30am 13.1 10.6 12.3 95 0.4 NE 17 20 9 11 1013.7 1013.7 0.4
26/03:00am 13.2 10.1 12.3 94 0.5 NE 20 32 11 17 1013.8 1013.8 0.4
26/02:55am 13.4 9.6 12.3 93 0.6 NE 24 32 13 17 1013.8 1013.8 0.4
26/02:30am 13.7 9.8 12.1 90 0.9 NE 24 32 13 17 1013.9 1014.0 0.4
26/02:25am 13.8 10.2 12.0 89 1.0 ENE 22 32 12 17 1013.9 1014.0 0.4
26/02:00am 13.8 10.9 12.4 91 0.8 ENE 19 30 10 16 1014.5 1014.6 0.4
26/01:41am 13.6 10.7 12.3 92 0.7 ENE 19 26 10 14 1015.2 1015.3 0.4
26/01:30am 13.7 10.8 12.4 92 0.7 E 19 24 10 13 1015.8 1015.9 0.4
26/01:00am 14.0 10.7 12.9 93 0.6 ENE 22 28 12 15 1016.0 1016.1 0.4
26/12:30am 13.9 10.2 12.8 93 0.6 NE 24 30 13 16 1016.3 1016.4 0.4
26/12:00am 14.0 10.0 12.9 93 0.6 NE 26 32 14 17 1016.2 1016.3 0.4
 
Date/Time
EDT
Temp
°C
App
Temp
°C
Dew
Point
Rel
Hum
%
Delta-T
°C
Wind Press
QNH
hPa
Press
MSL
hPa
Rain
since 9 am
mm
Dir
 
Spd
km/h
Gust
km/h
Spd
kts
Gust
kts
25/11:43pm 14.0 10.7 12.9 93 0.6 NE 22 30 12 16 1016.4 1016.5 0.4
25/11:41pm 14.0 10.4 12.9 93 0.6 NE 24 30 13 16 1016.4 1016.5 0.4
25/11:37pm 14.0 10.0 12.9 93 0.6 NE 26 35 14 19 1016.3 1016.4 0.4
25/11:30pm 14.0 10.0 12.9 93 0.6 NE 26 35 14 19 1016.3 1016.4 0.4
25/11:00pm 13.9 9.5 13.0 94 0.5 NE 28 35 15 19 1016.3 1016.4 0.2
25/10:58pm 14.0 10.0 13.1 94 0.5 NE 26 35 14 19 1016.3 1016.4 0.2
25/10:55pm 14.0 10.4 13.1 94 0.5 NE 24 32 13 17 1016.4 1016.5 0.2
25/10:42pm 13.8 10.2 12.9 94 0.5 NE 24 30 13 16 1016.6 1016.7 0.2
25/10:30pm 13.9 9.5 13.0 94 0.5 NE 28 39 15 21 1016.6 1016.7 0.2
25/10:26pm 13.8 9.0 12.9 94 0.5 NE 30 39 16 21 1016.6 1016.7 0.2
25/10:00pm 14.1 10.4 12.8 92 0.7 NNE 24 28 13 15 1016.5 1016.6 0.2
25/09:50pm 14.2 10.6 12.9 92 0.7 NNE 24 32 13 17 1016.5 1016.6 0.2
25/09:42pm 14.2 9.8 12.8 91 0.8 NNE 28 33 15 18 1016.5 1016.6 0.2
25/09:30pm 14.2 10.1 12.8 91 0.8 NNE 26 32 14 17 1016.6 1016.7 0.2
25/09:00pm 14.4 11.3 12.3 87 1.1 N 20 26 11 14 1017.0 1017.1 0.2
25/08:30pm 14.6 10.9 12.8 89 1.0 NE 24 30 13 16 1016.5 1016.6 0.2
25/08:00pm 14.6 12.1 12.3 86 1.2 NNE 17 20 9 11 1016.4 1016.5 0.2
25/07:36pm 14.8 11.6 11.9 83 1.6 NE 20 24 11 13 1016.3 1016.4 0.2
25/07:30pm 14.8 11.6 11.9 83 1.6 NE 20 26 11 14 1016.2 1016.3 0.2
25/07:00pm 15.0 11.4 12.0 82 1.6 NE 22 30 12 16 1015.6 1015.7 0.2
25/06:30pm 15.5 10.9 12.3 81 1.7 NE 28 33 15 18 1015.0 1015.1 0.2
25/06:00pm 16.0 11.9 11.6 75 2.4 NE 24 30 13 16 1014.5 1014.6 0.2
25/05:30pm 16.8 13.7 12.1 74 2.6 NE 20 24 11 13 1014.5 1014.6 0.2
25/05:00pm 16.9 14.3 12.0 73 2.7 NE 17 19 9 10 1014.5 1014.6 0.2
25/04:30pm 16.8 15.2 12.7 77 2.3 NE 13 17 7 9 1014.6 1014.7 0.2
25/04:00pm 16.3 14.0 13.0 81 1.8 NNE 17 20 9 11 1014.9 1015.0 0.2
25/03:30pm 16.7 13.6 13.4 81 1.9 NNE 22 28 12 15 1014.8 1014.9 0.2
25/03:00pm 16.4 12.8 13.1 81 1.8 NE 24 30 13 16 1014.6 1014.7 0.2
25/02:30pm 17.2 13.6 13.1 77 2.3 NE 24 30 13 16 1014.3 1014.4 0.2
25/02:00pm 17.6 14.9 12.9 74 2.6 NE 19 22 10 12 1014.4 1014.5 0.2
25/01:30pm 18.8 15.8 11.9 64 3.8 NNE 19 20 10 11 1014.7 1014.8 0.2
25/01:00pm 18.8 17.4 13.4 71 3.1 N 13 17 7 9 1014.6 1014.7 0.2
25/12:30pm 17.4 15.5 12.9 75 2.5 NNW 15 20 8 11 1014.7 1014.8 0.2
25/12:00pm 17.5 15.2 13.0 75 2.5 NNW 17 19 9 10 1014.9 1015.0 0.0
25/11:30am 19.2 17.7 13.2 68 3.4 NNE 13 17 7 9 1014.7 1014.8 0.0
25/11:00am 19.5 18.8 13.2 67 3.6 S 9 17 5 9 1014.8 1014.9 0.0
25/10:30am 18.6 17.4 12.8 69 3.3 S 11 17 6 9 1015.1 1015.2 0.0
25/10:00am 17.5 15.7 12.0 70 3.0 S 13 17 7 9 1015.2 1015.3 0.0
25/09:30am 16.7 15.9 12.8 78 2.2 S 9 11 5 6 1015.0 1015.1 0.0
25/09:00am 15.6 14.5 12.0 79 2.0 S 9 13 5 7 1014.6 1014.7 1.2
25/08:30am 14.5 14.0 12.2 86 1.2 SSE 6 9 3 5 1014.6 1014.7 1.2
25/08:00am 13.5 12.6 11.4 87 1.1 E 7 11 4 6 1014.3 1014.4 1.2
25/07:30am 11.7 10.2 10.6 93 0.6 SSE 9 11 5 6 1013.9 1014.0 1.2
25/07:00am 9.6 7.6 8.5 93 0.5 SSW 9 11 5 6 1013.5 1013.5 1.2
25/06:30am 8.9 8.0 7.8 93 0.5 WSW 2 7 1 4 1013.0 1013.0 1.2
25/06:00am 10.6 8.0 9.5 93 0.6 WSW 13 13 7 7 1012.3 1012.3 1.2
25/05:30am 9.6 6.8 8.5 93 0.5 W 13 15 7 8 1012.1 1012.1 1.2
25/05:00am 11.0 8.9 9.8 92 0.6 W 11 13 6 7 1011.7 1011.7 1.2
25/04:30am 11.5 9.4 9.9 90 0.8 WSW 11 15 6 8 1011.5 1011.5 1.2
25/04:00am 12.0 9.6 9.9 87 1.1 W 13 17 7 9 1011.4 1011.4 1.2
25/03:30am 12.1 10.5 10.3 89 0.9 S 9 17 5 9 1011.4 1011.4 1.2
25/03:00am 12.0 8.9 10.4 90 0.8 W 17 20 9 11 1011.2 1011.2 1.2
25/02:30am 13.0 9.2 11.1 88 1.0 WNW 22 26 12 14 1011.1 1011.1 1.2
25/02:00am 13.2 9.1 11.6 90 0.9 WNW 24 32 13 17 1011.1 1011.1 1.2
25/01:30am 13.6 10.0 13.1 97 0.3 W 24 32 13 17 1010.7 1010.7 1.2
25/01:29am 13.6 10.0 13.1 97 0.3 W 24 30 13 16 1010.7 1010.7 1.2
25/01:25am 13.5 10.3 13.2 98 0.2 W 22 28 12 15 1010.8 1010.8 1.2
25/01:03am 13.5 12.1 13.3 99 0.1 W 13 20 7 11 1011.1 1011.1 1.2
25/01:00am 13.6 11.8 13.4 99 0.1 W 15 20 8 11 1011.1 1011.1 1.2
25/12:35am 13.7 11.6 13.5 99 0.1 WNW 17 20 9 11 1010.9 1010.9 1.2
25/12:34am 13.7 11.6 13.5 99 0.1 WNW 17 20 9 11 1010.9 1010.9 1.2
25/12:30am 13.7 11.6 13.5 99 0.1 WNW 17 24 9 13 1011.0 1011.0 1.2
25/12:26am 13.7 11.2 13.4 98 0.2 WNW 19 24 10 13 1011.0 1011.0 1.2
25/12:16am 14.0 11.6 13.8 99 0.1 WNW 19 24 10 13 1011.1 1011.1 1.2
25/12:00am 14.1 11.7 13.8 98 0.2 WNW 19 22 10 12 1010.9 1010.9 1.2
 
Date/Time
EDT
Temp
°C
App
Temp
°C
Dew
Point
Rel
Hum
%
Delta-T
°C
Wind Press
QNH
hPa
Press
MSL
hPa
Rain
since 9 am
mm
Dir
 
Spd
km/h
Gust
km/h
Spd
kts
Gust
kts
24/11:33pm 14.3 12.0 14.0 98 0.2 WNW 19 22 10 12 1011.1 1011.1 1.2
24/11:30pm 14.3 12.3 14.0 98 0.2 WNW 17 20 9 11 1011.1 1011.1 1.2
24/11:21pm 14.3 12.7 14.0 98 0.2 NW 15 19 8 10 1011.0 1011.0 1.2
24/11:00pm 14.4 12.9 14.1 98 0.2 WNW 15 19 8 10 1010.7 1010.7 1.2
24/10:30pm 14.5 14.5 14.2 98 0.2 NNW 7 9 4 5 1010.8 1010.8 1.2
24/10:00pm 14.6 14.6 14.1 97 0.3 N 7 9 4 5 1010.8 1010.8 1.2
24/09:44pm 14.7 14.9 14.2 97 0.3 NNW 6 7 3 4 1010.9 1010.9 1.0
24/09:30pm 14.9 15.0 14.4 97 0.3 NW 7 9 4 5 1011.2 1011.2 1.0
24/09:00pm 15.1 14.8 14.5 96 0.3 N 9 9 5 5 1011.1 1011.1 1.0
24/08:44pm 15.4 16.9 14.6 95 0.5 CALM 0 2 0 1 1011.2 1011.2 1.0
24/08:30pm 15.2 15.9 14.4 95 0.5 W 4 7 2 4 1011.2 1011.2 1.0
24/08:00pm 15.1 15.2 14.5 96 0.3 WSW 7 13 4 7 1010.8 1010.8 1.0
24/07:30pm 14.9 14.6 14.3 96 0.3 SSE 9 13 5 7 1010.0 1010.0 1.0
24/07:00pm 14.9 14.6 14.3 96 0.3 S 9 11 5 6 1010.2 1010.2 1.0
24/06:30pm 14.8 14.1 14.2 96 0.3 S 11 15 6 8 1010.1 1010.1 1.0
24/06:00pm 14.8 14.1 14.2 96 0.3 S 11 17 6 9 1010.3 1010.3 0.8
24/05:30pm 14.7 13.9 14.1 96 0.3 S 11 15 6 8 1010.6 1010.6 0.8
24/05:00pm 14.7 13.5 14.1 96 0.3 S 13 17 7 9 1010.6 1010.6 0.8
24/04:30pm 14.5 13.3 13.9 96 0.3 SSE 13 17 7 9 1010.7 1010.7 0.8
24/04:14pm 14.4 13.1 13.8 96 0.3 S 13 15 7 8 1011.3 1011.3 0.8
24/04:00pm 14.3 12.2 13.7 96 0.3 SSE 17 20 9 11 1011.4 1011.4 0.8
24/03:30pm 14.2 12.5 13.6 96 0.3 SSE 15 20 8 11 1011.9 1011.9 0.4
24/03:19pm 14.2 12.4 13.4 95 0.4 SSE 15 20 8 11 1012.0 1012.0 0.4
24/03:00pm 14.0 12.2 13.2 95 0.4 S 15 20 8 11 1012.4 1012.4 0.2
24/02:30pm 13.9 11.3 13.1 95 0.4 S 19 24 10 13 1012.5 1012.5 0.2
24/02:00pm 13.5 10.7 12.6 94 0.5 S 19 20 10 11 1013.1 1013.1 0.2
24/01:41pm 13.7 11.3 12.8 94 0.5 SSE 17 22 9 12 1013.4 1013.4 0.0
24/01:30pm 13.5 10.7 12.6 94 0.5 SSE 19 26 10 14 1013.6 1013.6 0.0
24/01:23pm 13.4 10.4 12.5 94 0.5 SSE 20 28 11 15 1013.7 1013.7 0.0
24/01:18pm 13.4 10.0 12.5 94 0.5 SSE 22 28 12 15 1013.8 1013.8 0.0
24/01:00pm 13.1 9.6 12.2 94 0.5 SSE 22 28 12 15 1014.0 1014.1 0.0
24/12:30pm 12.2 8.1 11.3 94 0.5 S 24 28 13 15 1014.7 1014.8 0.0
24/12:00pm 11.7 7.4 10.8 94 0.5 S 24 30 13 16 1015.5 1015.6 0.0
24/11:30am 11.3 6.8 10.2 93 0.6 S 24 33 13 18 1016.1 1016.2 0.0
24/11:02am 11.4 7.4 10.3 93 0.6 SSE 22 30 12 16 1016.3 1016.4 0.0
24/11:00am 11.5 7.5 10.4 93 0.6 SSE 22 28 12 15 1016.5 1016.6 0.0
24/10:51am 11.4 7.4 10.3 93 0.6 SSE 22 30 12 16 1016.7 1016.8 0.0
24/10:30am 11.1 7.3 9.9 92 0.6 SSE 20 26 11 14 1017.2 1017.3 0.0
24/10:00am 11.0 7.1 9.3 89 0.8 SSE 20 30 11 16 1017.5 1017.6 0.0
24/09:52am 11.0 7.6 9.3 89 0.8 S 17 22 9 12 1017.5 1017.6 0.0
24/09:30am 10.8 6.5 8.0 83 1.4 S 20 24 11 13 1017.8 1017.9 0.0
24/09:00am 11.4 7.3 7.7 78 1.8 SSE 19 22 10 12 1018.3 1018.3 0.0
24/08:49am 11.5 7.4 7.8 78 1.8 SSE 19 24 10 13 1018.5 1018.5 0.0
24/08:30am 11.4 7.9 7.3 76 2.0 S 15 19 8 10 1018.7 1018.7 0.0
24/08:00am 11.5 7.4 6.4 71 2.4 SSE 17 24 9 13 1018.9 1018.9 0.0
24/07:30am 10.8 6.2 5.8 71 2.3 S 19 24 10 13 1019.1 1019.1 0.0
24/07:00am 10.6 5.8 5.8 72 2.2 SSE 20 26 11 14 1019.4 1019.4 0.0
24/06:30am 10.2 5.6 5.8 74 2.0 S 19 20 10 11 1019.9 1019.9 0.0
24/06:00am 10.0 5.8 5.6 74 2.0 S 17 20 9 11 1019.9 1019.9 0.0
24/05:30am 10.4 5.6 5.6 72 2.2 SSE 20 26 11 14 1019.9 1019.9 0.0
24/05:00am 10.3 4.6 5.1 70 2.3 SSE 24 30 13 16 1020.1 1020.1 0.0
24/04:30am 10.0 4.3 5.0 71 2.3 SSE 24 32 13 17 1020.3 1020.3 0.0
24/04:00am 9.6 4.3 5.2 74 2.0 SSE 22 30 12 16 1020.6 1020.6 0.0
24/03:30am 9.4 4.2 5.4 76 1.8 SSE 22 30 12 16 1021.3 1021.3 0.0
24/03:00am 9.2 4.0 5.6 78 1.6 SSE 22 30 12 16 1021.9 1021.9 0.0
24/02:30am 8.5 3.9 5.4 81 1.4 SSE 19 20 10 11 1022.5 1022.5 0.0
24/02:00am 8.2 3.3 5.1 81 1.4 SSE 20 24 11 13 1022.8 1022.8 0.0
24/01:30am 8.8 4.0 5.4 79 1.5 SE 20 26 11 14 1023.1 1023.1 0.0
24/01:00am 8.7 5.3 6.0 83 1.2 SE 13 15 7 8 1023.8 1023.8 0.0
24/12:30am 9.4 5.5 5.4 76 1.8 E 15 19 8 10 1024.0 1024.0 0.0
24/12:00am 10.2 6.1 6.4 77 1.8 E 17 20 9 11 1024.4 1024.4 0.0
 
Date/Time
EDT
Temp
°C
App
Temp
°C
Dew
Point
Rel
Hum
%
Delta-T
°C
Wind Press
QNH
hPa
Press
MSL
hPa
Rain
since 9 am
mm
Dir
 
Spd
km/h
Gust
km/h
Spd
kts
Gust
kts
23/11:30pm 10.9 6.0 7.0 77 1.9 ENE 22 30 12 16 1024.3 1024.3 0.0
23/11:00pm 11.9 5.7 8.0 77 1.9 ENE 30 37 16 20 1024.0 1024.0 0.0
23/10:30pm 11.9 7.0 8.6 80 1.6 ENE 24 30 13 16 1024.2 1024.2 0.0
23/10:00pm 11.4 6.8 8.1 80 1.6 ENE 22 26 12 14 1024.2 1024.2 0.0
23/09:30pm 11.7 7.2 8.4 80 1.6 ENE 22 30 12 16 1023.9 1023.9 0.0
23/09:00pm 12.9 7.8 9.2 78 1.9 ENE 26 37 14 20 1023.6 1023.6 0.0
23/08:30pm 12.4 10.5 9.2 81 1.6 E 9 11 5 6 1023.7 1023.7 0.0
23/08:00pm 13.3 10.9 9.9 80 1.7 NE 13 17 7 9 1023.3 1023.3 0.0
23/07:30pm 13.7 12.0 9.7 77 2.1 N 9 13 5 7 1023.2 1023.2 0.0
23/07:00pm 14.3 11.9 9.9 75 2.3 NNE 13 17 7 9 1022.8 1022.8 0.0
23/06:30pm 14.9 12.5 10.1 73 2.5 NNE 13 17 7 9 1022.8 1022.8 0.0
23/06:00pm 15.2 12.7 9.8 70 2.8 N 13 17 7 9 1022.8 1022.8 0.0
23/05:30pm 15.5 13.0 9.8 69 3.0 N 13 17 7 9 1022.8 1022.8 0.0
23/05:00pm 15.8 13.5 10.3 70 2.9 N 13 19 7 10 1022.9 1022.9 0.0
23/04:30pm 15.6 12.7 9.7 68 3.1 N 15 20 8 11 1022.8 1022.8 0.0
23/04:00pm 15.8 12.7 10.3 70 2.9 N 17 20 9 11 1022.8 1022.8 0.0
23/03:30pm 15.8 12.8 10.8 72 2.7 N 17 22 9 12 1023.0 1023.0 0.0
23/03:00pm 15.9 12.3 10.4 70 2.9 N 20 24 11 13 1022.9 1022.9 0.0
23/02:30pm 16.2 13.0 11.8 75 2.4 N 20 26 11 14 1023.0 1023.0 0.0

Other Formats:

Comma delimited format used in spreadsheet applications
http://www.bom.gov.au/fwo/IDT60801/IDT60801.95960.axf

JavaScript Object Notation format (JSON) in row-major order
http://www.bom.gov.au/fwo/IDT60801/IDT60801.95960.json